sensor_id;sensor_type;location;lat;lon;timestamp;temperature;humidity
66835;HTU21D;53743;51.100;5.874;2023-11-21T00:00:27;10.00;94.98
66835;HTU21D;53743;51.100;5.874;2023-11-21T00:01:29;9.99;95.00
66835;HTU21D;53743;51.100;5.874;2023-11-21T00:02:30;9.99;95.07
66835;HTU21D;53743;51.100;5.874;2023-11-21T00:03:32;10.00;95.09
66835;HTU21D;53743;51.100;5.874;2023-11-21T00:04:34;9.99;95.18
66835;HTU21D;53743;51.100;5.874;2023-11-21T00:05:36;10.01;95.14
66835;HTU21D;53743;51.100;5.874;2023-11-21T00:06:36;10.01;95.23
66835;HTU21D;53743;51.100;5.874;2023-11-21T00:07:39;10.00;95.17
66835;HTU21D;53743;51.100;5.874;2023-11-21T00:08:40;10.00;95.20
66835;HTU21D;53743;51.100;5.874;2023-11-21T00:09:42;9.99;95.23
66835;HTU21D;53743;51.100;5.874;2023-11-21T00:10:43;9.97;95.39
66835;HTU21D;53743;51.100;5.874;2023-11-21T00:11:45;9.96;95.45
66835;HTU21D;53743;51.100;5.874;2023-11-21T00:12:47;9.95;95.67
66835;HTU21D;53743;51.100;5.874;2023-11-21T00:13:50;9.95;95.88
66835;HTU21D;53743;51.100;5.874;2023-11-21T00:14:51;9.97;95.98
66835;HTU21D;53743;51.100;5.874;2023-11-21T00:15:53;9.97;96.06
66835;HTU21D;53743;51.100;5.874;2023-11-21T00:16:54;9.98;96.18
66835;HTU21D;53743;51.100;5.874;2023-11-21T00:17:56;9.98;96.33
66835;HTU21D;53743;51.100;5.874;2023-11-21T00:18:57;10.01;96.18
66835;HTU21D;53743;51.100;5.874;2023-11-21T00:19:59;10.01;96.01
66835;HTU21D;53743;51.100;5.874;2023-11-21T00:21:00;10.03;96.13
66835;HTU21D;53743;51.100;5.874;2023-11-21T00:22:03;10.04;96.15
66835;HTU21D;53743;51.100;5.874;2023-11-21T00:23:04;10.05;96.19
66835;HTU21D;53743;51.100;5.874;2023-11-21T00:24:06;10.05;96.12
66835;HTU21D;53743;51.100;5.874;2023-11-21T00:25:08;10.06;96.08
66835;HTU21D;53743;51.100;5.874;2023-11-21T00:26:11;10.04;96.10
66835;HTU21D;53743;51.100;5.874;2023-11-21T00:27:12;10.04;96.04
66835;HTU21D;53743;51.100;5.874;2023-11-21T00:28:16;10.05;96.11
66835;HTU21D;53743;51.100;5.874;2023-11-21T00:29:17;10.05;96.11
66835;HTU21D;53743;51.100;5.874;2023-11-21T00:30:19;10.07;95.97
66835;HTU21D;53743;51.100;5.874;2023-11-21T00:31:20;10.06;96.01
66835;HTU21D;53743;51.100;5.874;2023-11-21T00:32:22;10.06;96.33
66835;HTU21D;53743;51.100;5.874;2023-11-21T00:33:23;10.06;96.40
66835;HTU21D;53743;51.100;5.874;2023-11-21T00:34:26;10.07;96.49
66835;HTU21D;53743;51.100;5.874;2023-11-21T00:35:28;10.08;96.62
66835;HTU21D;53743;51.100;5.874;2023-11-21T00:36:29;10.11;96.58
66835;HTU21D;53743;51.100;5.874;2023-11-21T00:37:32;10.12;96.59
66835;HTU21D;53743;51.100;5.874;2023-11-21T00:38:33;10.13;96.30
66835;HTU21D;53743;51.100;5.874;2023-11-21T00:39:34;10.13;96.36
66835;HTU21D;53743;51.100;5.874;2023-11-21T00:40:36;10.14;96.33
66835;HTU21D;53743;51.100;5.874;2023-11-21T00:41:38;10.15;96.24
66835;HTU21D;53743;51.100;5.874;2023-11-21T00:42:40;10.15;96.23
66835;HTU21D;53743;51.100;5.874;2023-11-21T00:43:42;10.15;96.21
66835;HTU21D;53743;51.100;5.874;2023-11-21T00:44:44;10.14;96.26
66835;HTU21D;53743;51.100;5.874;2023-11-21T00:45:47;10.13;96.24
66835;HTU21D;53743;51.100;5.874;2023-11-21T00:46:49;10.13;96.33
66835;HTU21D;53743;51.100;5.874;2023-11-21T00:47:51;10.14;96.36
66835;HTU21D;53743;51.100;5.874;2023-11-21T00:48:52;10.15;96.39
66835;HTU21D;53743;51.100;5.874;2023-11-21T00:49:55;10.14;96.21
66835;HTU21D;53743;51.100;5.874;2023-11-21T00:50:56;10.16;96.21
66835;HTU21D;53743;51.100;5.874;2023-11-21T00:51:57;10.16;96.19
66835;HTU21D;53743;51.100;5.874;2023-11-21T00:53:00;10.15;95.79
66835;HTU21D;53743;51.100;5.874;2023-11-21T00:54:03;10.15;96.29
66835;HTU21D;53743;51.100;5.874;2023-11-21T00:55:06;10.16;96.20
66835;HTU21D;53743;51.100;5.874;2023-11-21T00:56:08;10.16;96.31
66835;HTU21D;53743;51.100;5.874;2023-11-21T00:57:11;10.19;96.30
66835;HTU21D;53743;51.100;5.874;2023-11-21T00:58:12;10.21;96.23
66835;HTU21D;53743;51.100;5.874;2023-11-21T00:59:16;10.23;96.21
66835;HTU21D;53743;51.100;5.874;2023-11-21T01:00:17;10.25;96.10
66835;HTU21D;53743;51.100;5.874;2023-11-21T01:01:20;10.28;95.97
66835;HTU21D;53743;51.100;5.874;2023-11-21T01:02:23;10.29;95.84
66835;HTU21D;53743;51.100;5.874;2023-11-21T01:03:25;10.34;95.73
66835;HTU21D;53743;51.100;5.874;2023-11-21T01:04:27;10.35;95.68
66835;HTU21D;53743;51.100;5.874;2023-11-21T01:05:29;10.37;95.74
66835;HTU21D;53743;51.100;5.874;2023-11-21T01:06:30;10.37;95.47
66835;HTU21D;53743;51.100;5.874;2023-11-21T01:07:32;10.39;95.37
66835;HTU21D;53743;51.100;5.874;2023-11-21T01:08:33;10.40;95.41
66835;HTU21D;53743;51.100;5.874;2023-11-21T01:09:36;10.41;95.27
66835;HTU21D;53743;51.100;5.874;2023-11-21T01:10:37;10.41;95.22
66835;HTU21D;53743;51.100;5.874;2023-11-21T01:11:40;10.42;95.20
66835;HTU21D;53743;51.100;5.874;2023-11-21T01:12:41;10.42;95.27
66835;HTU21D;53743;51.100;5.874;2023-11-21T01:13:43;10.42;95.24
66835;HTU21D;53743;51.100;5.874;2023-11-21T01:14:46;10.40;95.32
66835;HTU21D;53743;51.100;5.874;2023-11-21T01:15:48;10.38;95.31
66835;HTU21D;53743;51.100;5.874;2023-11-21T01:16:49;10.36;95.43
66835;HTU21D;53743;51.100;5.874;2023-11-21T01:17:52;10.36;95.42
66835;HTU21D;53743;51.100;5.874;2023-11-21T01:18:54;10.35;95.70
66835;HTU21D;53743;51.100;5.874;2023-11-21T01:19:56;10.33;95.65
66835;HTU21D;53743;51.100;5.874;2023-11-21T01:20:59;10.34;95.53
66835;HTU21D;53743;51.100;5.874;2023-11-21T01:22:01;10.31;95.63
66835;HTU21D;53743;51.100;5.874;2023-11-21T01:23:02;10.31;95.80
66835;HTU21D;53743;51.100;5.874;2023-11-21T01:24:05;10.31;95.94
66835;HTU21D;53743;51.100;5.874;2023-11-21T01:25:08;10.33;95.84
66835;HTU21D;53743;51.100;5.874;2023-11-21T01:26:09;10.31;95.89
66835;HTU21D;53743;51.100;5.874;2023-11-21T01:27:11;10.28;96.07
66835;HTU21D;53743;51.100;5.874;2023-11-21T01:28:12;10.26;96.36
66835;HTU21D;53743;51.100;5.874;2023-11-21T01:29:13;10.22;96.33
66835;HTU21D;53743;51.100;5.874;2023-11-21T01:30:18;10.21;96.73
66835;HTU21D;53743;51.100;5.874;2023-11-21T01:31:19;10.20;97.03
66835;HTU21D;53743;51.100;5.874;2023-11-21T01:32:21;10.23;97.14
66835;HTU21D;53743;51.100;5.874;2023-11-21T01:33:23;10.24;97.08
66835;HTU21D;53743;51.100;5.874;2023-11-21T01:34:26;10.24;97.16
66835;HTU21D;53743;51.100;5.874;2023-11-21T01:35:29;10.24;97.20
66835;HTU21D;53743;51.100;5.874;2023-11-21T01:36:31;10.25;97.32
66835;HTU21D;53743;51.100;5.874;2023-11-21T01:37:33;10.28;97.20
66835;HTU21D;53743;51.100;5.874;2023-11-21T01:38:34;10.29;97.02
66835;HTU21D;53743;51.100;5.874;2023-11-21T01:39:36;10.29;97.01
66835;HTU21D;53743;51.100;5.874;2023-11-21T01:40:39;10.30;96.76
66835;HTU21D;53743;51.100;5.874;2023-11-21T01:41:41;10.29;96.80
66835;HTU21D;53743;51.100;5.874;2023-11-21T01:42:44;10.30;96.76
66835;HTU21D;53743;51.100;5.874;2023-11-21T01:43:47;10.30;96.75
66835;HTU21D;53743;51.100;5.874;2023-11-21T01:44:48;10.30;96.71
66835;HTU21D;53743;51.100;5.874;2023-11-21T01:45:52;10.28;96.69
66835;HTU21D;53743;51.100;5.874;2023-11-21T01:46:56;10.30;96.74
66835;HTU21D;53743;51.100;5.874;2023-11-21T01:47:59;10.31;96.66
66835;HTU21D;53743;51.100;5.874;2023-11-21T01:49:01;10.33;96.64
66835;HTU21D;53743;51.100;5.874;2023-11-21T01:50:02;10.35;96.56
66835;HTU21D;53743;51.100;5.874;2023-11-21T01:51:06;10.35;96.50
66835;HTU21D;53743;51.100;5.874;2023-11-21T01:52:08;10.37;96.38
66835;HTU21D;53743;51.100;5.874;2023-11-21T01:53:12;10.38;96.28
66835;HTU21D;53743;51.100;5.874;2023-11-21T01:54:14;10.39;96.23
66835;HTU21D;53743;51.100;5.874;2023-11-21T01:55:18;10.39;95.88
66835;HTU21D;53743;51.100;5.874;2023-11-21T01:56:20;0.00;96.10
66835;HTU21D;53743;51.100;5.874;2023-11-21T01:57:22;10.38;96.04
66835;HTU21D;53743;51.100;5.874;2023-11-21T01:58:23;10.37;96.15
66835;HTU21D;53743;51.100;5.874;2023-11-21T01:59:27;10.36;96.30
66835;HTU21D;53743;51.100;5.874;2023-11-21T02:00:32;10.35;95.69
66835;HTU21D;53743;51.100;5.874;2023-11-21T02:01:35;10.33;96.29
66835;HTU21D;53743;51.100;5.874;2023-11-21T02:02:37;10.34;96.38
66835;HTU21D;53743;51.100;5.874;2023-11-21T02:03:38;10.34;96.49
66835;HTU21D;53743;51.100;5.874;2023-11-21T02:04:42;10.34;96.58
66835;HTU21D;53743;51.100;5.874;2023-11-21T02:06:56;10.35;96.41
66835;HTU21D;53743;51.100;5.874;2023-11-21T02:07:58;10.35;96.45
66835;HTU21D;53743;51.100;5.874;2023-11-21T02:09:01;10.35;96.50
66835;HTU21D;53743;51.100;5.874;2023-11-21T02:10:06;10.34;96.47
66835;HTU21D;53743;51.100;5.874;2023-11-21T02:11:08;10.34;96.59
66835;HTU21D;53743;51.100;5.874;2023-11-21T02:12:14;10.33;96.58
66835;HTU21D;53743;51.100;5.874;2023-11-21T02:13:15;10.30;96.76
66835;HTU21D;53743;51.100;5.874;2023-11-21T02:14:18;10.31;96.83
66835;HTU21D;53743;51.100;5.874;2023-11-21T02:15:21;10.30;96.64
66835;HTU21D;53743;51.100;5.874;2023-11-21T02:16:27;10.27;97.02
66835;HTU21D;53743;51.100;5.874;2023-11-21T02:17:33;10.25;97.07
66835;HTU21D;53743;51.100;5.874;2023-11-21T02:18:35;10.27;97.13
66835;HTU21D;53743;51.100;5.874;2023-11-21T02:19:37;10.27;97.13
66835;HTU21D;53743;51.100;5.874;2023-11-21T02:20:39;10.26;97.09
66835;HTU21D;53743;51.100;5.874;2023-11-21T02:21:42;10.26;97.26
66835;HTU21D;53743;51.100;5.874;2023-11-21T02:22:49;10.23;97.40
66835;HTU21D;53743;51.100;5.874;2023-11-21T02:23:58;10.24;97.60
66835;HTU21D;53743;51.100;5.874;2023-11-21T02:24:59;10.24;97.62
66835;HTU21D;53743;51.100;5.874;2023-11-21T02:26:01;10.25;97.68
66835;HTU21D;53743;51.100;5.874;2023-11-21T02:27:05;10.26;97.65
66835;HTU21D;53743;51.100;5.874;2023-11-21T02:28:07;10.27;97.72
66835;HTU21D;53743;51.100;5.874;2023-11-21T02:29:08;10.28;97.52
66835;HTU21D;53743;51.100;5.874;2023-11-21T02:30:13;10.29;97.37
66835;HTU21D;53743;51.100;5.874;2023-11-21T02:31:14;10.30;97.31
66835;HTU21D;53743;51.100;5.874;2023-11-21T02:32:16;10.33;97.17
66835;HTU21D;53743;51.100;5.874;2023-11-21T02:33:19;10.33;97.08
66835;HTU21D;53743;51.100;5.874;2023-11-21T02:34:22;10.34;97.04
66835;HTU21D;53743;51.100;5.874;2023-11-21T02:35:24;10.37;97.03
66835;HTU21D;53743;51.100;5.874;2023-11-21T02:36:26;10.39;97.00
66835;HTU21D;53743;51.100;5.874;2023-11-21T02:37:27;10.39;96.97
66835;HTU21D;53743;51.100;5.874;2023-11-21T02:38:30;10.40;96.80
66835;HTU21D;53743;51.100;5.874;2023-11-21T02:39:32;10.40;96.71
66835;HTU21D;53743;51.100;5.874;2023-11-21T02:40:33;10.38;96.77
66835;HTU21D;53743;51.100;5.874;2023-11-21T02:41:35;10.37;96.69
66835;HTU21D;53743;51.100;5.874;2023-11-21T02:42:36;10.35;96.70
66835;HTU21D;53743;51.100;5.874;2023-11-21T02:43:37;10.34;96.79
66835;HTU21D;53743;51.100;5.874;2023-11-21T02:44:39;10.31;96.86
66835;HTU21D;53743;51.100;5.874;2023-11-21T02:45:40;10.31;97.00
66835;HTU21D;53743;51.100;5.874;2023-11-21T02:46:42;10.33;96.94
66835;HTU21D;53743;51.100;5.874;2023-11-21T02:47:44;10.30;96.94
66835;HTU21D;53743;51.100;5.874;2023-11-21T02:48:45;10.30;97.00
66835;HTU21D;53743;51.100;5.874;2023-11-21T02:49:48;10.31;97.18
66835;HTU21D;53743;51.100;5.874;2023-11-21T02:50:49;10.30;97.09
66835;HTU21D;53743;51.100;5.874;2023-11-21T02:51:51;10.31;97.02
66835;HTU21D;53743;51.100;5.874;2023-11-21T02:52:52;10.30;96.97
66835;HTU21D;53743;51.100;5.874;2023-11-21T02:53:56;10.29;97.02
66835;HTU21D;53743;51.100;5.874;2023-11-21T02:54:59;10.27;96.98
66835;HTU21D;53743;51.100;5.874;2023-11-21T02:56:01;10.27;96.91
66835;HTU21D;53743;51.100;5.874;2023-11-21T02:57:02;10.25;96.97
66835;HTU21D;53743;51.100;5.874;2023-11-21T02:58:04;10.26;96.96
66835;HTU21D;53743;51.100;5.874;2023-11-21T02:59:06;10.24;97.03
66835;HTU21D;53743;51.100;5.874;2023-11-21T03:00:09;10.24;97.02
66835;HTU21D;53743;51.100;5.874;2023-11-21T03:01:10;10.25;97.18
66835;HTU21D;53743;51.100;5.874;2023-11-21T03:02:13;10.27;97.06
66835;HTU21D;53743;51.100;5.874;2023-11-21T03:03:14;10.25;97.02
66835;HTU21D;53743;51.100;5.874;2023-11-21T03:04:16;10.24;97.03
66835;HTU21D;53743;51.100;5.874;2023-11-21T03:05:18;10.26;97.12
66835;HTU21D;53743;51.100;5.874;2023-11-21T03:06:21;10.29;96.91
66835;HTU21D;53743;51.100;5.874;2023-11-21T03:07:23;10.30;96.91
66835;HTU21D;53743;51.100;5.874;2023-11-21T03:08:26;10.30;96.91
66835;HTU21D;53743;51.100;5.874;2023-11-21T03:09:28;10.29;97.04
66835;HTU21D;53743;51.100;5.874;2023-11-21T03:10:30;10.27;96.55
66835;HTU21D;53743;51.100;5.874;2023-11-21T03:11:31;10.26;97.21
66835;HTU21D;53743;51.100;5.874;2023-11-21T03:12:34;10.23;97.21
66835;HTU21D;53743;51.100;5.874;2023-11-21T03:13:35;10.22;97.35
66835;HTU21D;53743;51.100;5.874;2023-11-21T03:14:36;10.21;97.49
66835;HTU21D;53743;51.100;5.874;2023-11-21T03:15:38;10.19;97.22
66835;HTU21D;53743;51.100;5.874;2023-11-21T03:16:39;10.19;97.43
66835;HTU21D;53743;51.100;5.874;2023-11-21T03:17:42;10.13;97.24
66835;HTU21D;53743;51.100;5.874;2023-11-21T03:18:43;10.13;97.52
66835;HTU21D;53743;51.100;5.874;2023-11-21T03:19:45;10.13;97.36
66835;HTU21D;53743;51.100;5.874;2023-11-21T03:20:46;10.10;97.58
66835;HTU21D;53743;51.100;5.874;2023-11-21T03:21:48;10.10;97.68
66835;HTU21D;53743;51.100;5.874;2023-11-21T03:22:49;10.08;97.68
66835;HTU21D;53743;51.100;5.874;2023-11-21T03:23:51;10.09;97.65
66835;HTU21D;53743;51.100;5.874;2023-11-21T03:24:54;10.10;97.65
66835;HTU21D;53743;51.100;5.874;2023-11-21T03:25:55;10.09;97.61
66835;HTU21D;53743;51.100;5.874;2023-11-21T03:26:58;10.09;97.81
66835;HTU21D;53743;51.100;5.874;2023-11-21T03:27:59;10.11;97.94
66835;HTU21D;53743;51.100;5.874;2023-11-21T03:29:00;10.13;97.86
66835;HTU21D;53743;51.100;5.874;2023-11-21T03:30:02;10.13;98.00
66835;HTU21D;53743;51.100;5.874;2023-11-21T03:31:05;10.16;97.94
66835;HTU21D;53743;51.100;5.874;2023-11-21T03:32:09;10.15;97.73
66835;HTU21D;53743;51.100;5.874;2023-11-21T03:33:10;10.18;97.78
66835;HTU21D;53743;51.100;5.874;2023-11-21T03:34:16;10.18;97.71
66835;HTU21D;53743;51.100;5.874;2023-11-21T03:35:20;10.16;97.83
66835;HTU21D;53743;51.100;5.874;2023-11-21T03:36:22;10.15;97.86
66835;HTU21D;53743;51.100;5.874;2023-11-21T03:37:27;10.16;98.10
66835;HTU21D;53743;51.100;5.874;2023-11-21T03:38:29;10.13;97.78
66835;HTU21D;53743;51.100;5.874;2023-11-21T03:39:31;10.15;98.08
66835;HTU21D;53743;51.100;5.874;2023-11-21T03:40:34;10.12;97.70
66835;HTU21D;53743;51.100;5.874;2023-11-21T03:41:36;10.15;98.41
66835;HTU21D;53743;51.100;5.874;2023-11-21T03:42:38;10.16;98.37
66835;HTU21D;53743;51.100;5.874;2023-11-21T03:43:40;10.20;98.26
66835;HTU21D;53743;51.100;5.874;2023-11-21T03:44:42;10.21;98.43
66835;HTU21D;53743;51.100;5.874;2023-11-21T03:45:43;10.23;98.48
66835;HTU21D;53743;51.100;5.874;2023-11-21T03:46:45;10.27;98.46
66835;HTU21D;53743;51.100;5.874;2023-11-21T03:47:46;10.29;98.29
66835;HTU21D;53743;51.100;5.874;2023-11-21T03:48:48;10.33;98.32
66835;HTU21D;53743;51.100;5.874;2023-11-21T03:49:50;10.34;98.28
66835;HTU21D;53743;51.100;5.874;2023-11-21T03:50:51;10.37;98.23
66835;HTU21D;53743;51.100;5.874;2023-11-21T03:51:53;10.37;98.04
66835;HTU21D;53743;51.100;5.874;2023-11-21T03:52:54;10.39;97.97
66835;HTU21D;53743;51.100;5.874;2023-11-21T03:53:56;10.40;98.05
66835;HTU21D;53743;51.100;5.874;2023-11-21T03:54:57;10.41;97.94
66835;HTU21D;53743;51.100;5.874;2023-11-21T03:56:02;10.44;97.89
66835;HTU21D;53743;51.100;5.874;2023-11-21T03:57:04;10.46;97.62
66835;HTU21D;53743;51.100;5.874;2023-11-21T03:58:05;10.46;97.52
66835;HTU21D;53743;51.100;5.874;2023-11-21T03:59:07;10.46;97.29
66835;HTU21D;53743;51.100;5.874;2023-11-21T04:00:09;10.48;97.44
66835;HTU21D;53743;51.100;5.874;2023-11-21T04:01:20;10.46;97.50
66835;HTU21D;53743;51.100;5.874;2023-11-21T04:02:22;10.46;97.55
66835;HTU21D;53743;51.100;5.874;2023-11-21T04:03:25;10.48;97.64
66835;HTU21D;53743;51.100;5.874;2023-11-21T04:04:26;10.45;97.52
66835;HTU21D;53743;51.100;5.874;2023-11-21T04:05:28;10.45;97.74
66835;HTU21D;53743;51.100;5.874;2023-11-21T04:06:29;10.45;97.69
66835;HTU21D;53743;51.100;5.874;2023-11-21T04:07:33;10.48;97.76
66835;HTU21D;53743;51.100;5.874;2023-11-21T04:08:34;10.50;97.69
66835;HTU21D;53743;51.100;5.874;2023-11-21T04:09:36;10.50;97.63
66835;HTU21D;53743;51.100;5.874;2023-11-21T04:10:37;10.50;97.59
66835;HTU21D;53743;51.100;5.874;2023-11-21T04:11:41;10.53;97.52
66835;HTU21D;53743;51.100;5.874;2023-11-21T04:12:43;10.53;97.60
66835;HTU21D;53743;51.100;5.874;2023-11-21T04:13:45;10.56;97.50
66835;HTU21D;53743;51.100;5.874;2023-11-21T04:14:47;10.57;97.36
66835;HTU21D;53743;51.100;5.874;2023-11-21T04:15:49;10.59;97.42
66835;HTU21D;53743;51.100;5.874;2023-11-21T04:16:50;10.58;97.33
66835;HTU21D;53743;51.100;5.874;2023-11-21T04:17:52;10.57;97.13
66835;HTU21D;53743;51.100;5.874;2023-11-21T04:18:53;10.57;97.05
66835;HTU21D;53743;51.100;5.874;2023-11-21T04:19:55;10.57;97.04
66835;HTU21D;53743;51.100;5.874;2023-11-21T04:20:56;10.57;97.13
66835;HTU21D;53743;51.100;5.874;2023-11-21T04:21:57;10.54;97.25
66835;HTU21D;53743;51.100;5.874;2023-11-21T04:22:59;10.54;97.30
66835;HTU21D;53743;51.100;5.874;2023-11-21T04:24:00;10.54;97.29
66835;HTU21D;53743;51.100;5.874;2023-11-21T04:25:03;10.55;97.38
66835;HTU21D;53743;51.100;5.874;2023-11-21T04:26:04;10.55;97.41
66835;HTU21D;53743;51.100;5.874;2023-11-21T04:27:08;10.56;97.27
66835;HTU21D;53743;51.100;5.874;2023-11-21T04:28:09;10.57;97.40
66835;HTU21D;53743;51.100;5.874;2023-11-21T04:29:11;10.58;97.21
66835;HTU21D;53743;51.100;5.874;2023-11-21T04:30:13;10.59;97.03
66835;HTU21D;53743;51.100;5.874;2023-11-21T04:31:16;10.59;96.98
66835;HTU21D;53743;51.100;5.874;2023-11-21T04:32:17;10.62;97.01
66835;HTU21D;53743;51.100;5.874;2023-11-21T04:33:19;10.58;96.75
66835;HTU21D;53743;51.100;5.874;2023-11-21T04:34:20;10.58;96.97
66835;HTU21D;53743;51.100;5.874;2023-11-21T04:35:21;10.58;96.99
66835;HTU21D;53743;51.100;5.874;2023-11-21T04:36:23;10.58;97.18
66835;HTU21D;53743;51.100;5.874;2023-11-21T04:37:25;10.58;97.10
66835;HTU21D;53743;51.100;5.874;2023-11-21T04:38:26;10.59;96.87
66835;HTU21D;53743;51.100;5.874;2023-11-21T04:39:27;10.59;96.83
66835;HTU21D;53743;51.100;5.874;2023-11-21T04:40:28;10.59;96.84
66835;HTU21D;53743;51.100;5.874;2023-11-21T04:41:30;10.59;96.77
66835;HTU21D;53743;51.100;5.874;2023-11-21T04:42:35;10.57;96.84
66835;HTU21D;53743;51.100;5.874;2023-11-21T04:43:37;10.57;96.94
66835;HTU21D;53743;51.100;5.874;2023-11-21T04:44:38;10.57;97.21
66835;HTU21D;53743;51.100;5.874;2023-11-21T04:45:41;10.59;97.22
66835;HTU21D;53743;51.100;5.874;2023-11-21T04:46:42;10.59;97.16
66835;HTU21D;53743;51.100;5.874;2023-11-21T04:47:45;10.59;97.21
66835;HTU21D;53743;51.100;5.874;2023-11-21T04:48:46;10.60;97.14
66835;HTU21D;53743;51.100;5.874;2023-11-21T04:49:48;10.60;97.13
66835;HTU21D;53743;51.100;5.874;2023-11-21T04:50:49;10.59;97.31
66835;HTU21D;53743;51.100;5.874;2023-11-21T04:51:52;10.60;97.45
66835;HTU21D;53743;51.100;5.874;2023-11-21T04:52:53;10.63;97.41
66835;HTU21D;53743;51.100;5.874;2023-11-21T04:53:55;10.59;97.51
66835;HTU21D;53743;51.100;5.874;2023-11-21T04:54:55;10.59;97.51
66835;HTU21D;53743;51.100;5.874;2023-11-21T04:55:58;10.58;97.74
66835;HTU21D;53743;51.100;5.874;2023-11-21T04:56:59;10.59;97.84
66835;HTU21D;53743;51.100;5.874;2023-11-21T04:58:02;10.63;97.48
66835;HTU21D;53743;51.100;5.874;2023-11-21T04:59:05;10.64;97.57
66835;HTU21D;53743;51.100;5.874;2023-11-21T05:00:07;10.62;97.53
66835;HTU21D;53743;51.100;5.874;2023-11-21T05:01:10;10.63;97.69
66835;HTU21D;53743;51.100;5.874;2023-11-21T05:02:12;10.60;97.39
66835;HTU21D;53743;51.100;5.874;2023-11-21T05:03:14;10.56;97.33
66835;HTU21D;53743;51.100;5.874;2023-11-21T05:04:15;10.55;97.24
66835;HTU21D;53743;51.100;5.874;2023-11-21T05:05:17;10.53;97.12
66835;HTU21D;53743;51.100;5.874;2023-11-21T05:06:18;10.55;97.32
66835;HTU21D;53743;51.100;5.874;2023-11-21T05:07:20;10.53;97.41
66835;HTU21D;53743;51.100;5.874;2023-11-21T05:08:21;10.52;97.52
66835;HTU21D;53743;51.100;5.874;2023-11-21T05:09:23;10.51;97.45
66835;HTU21D;53743;51.100;5.874;2023-11-21T05:10:24;10.52;97.71
66835;HTU21D;53743;51.100;5.874;2023-11-21T05:11:29;10.51;97.71
66835;HTU21D;53743;51.100;5.874;2023-11-21T05:12:31;10.50;97.68
66835;HTU21D;53743;51.100;5.874;2023-11-21T05:13:36;10.45;97.68
66835;HTU21D;53743;51.100;5.874;2023-11-21T05:14:37;10.43;97.94
66835;HTU21D;53743;51.100;5.874;2023-11-21T05:15:39;10.41;98.23
66835;HTU21D;53743;51.100;5.874;2023-11-21T05:16:41;10.41;98.37
66835;HTU21D;53743;51.100;5.874;2023-11-21T05:17:44;10.39;98.37
66835;HTU21D;53743;51.100;5.874;2023-11-21T05:18:46;10.40;98.52
66835;HTU21D;53743;51.100;5.874;2023-11-21T05:19:47;10.41;98.60
66835;HTU21D;53743;51.100;5.874;2023-11-21T05:20:49;10.39;98.61
66835;HTU21D;53743;51.100;5.874;2023-11-21T05:21:50;10.38;98.58
66835;HTU21D;53743;51.100;5.874;2023-11-21T05:22:52;10.36;98.79
66835;HTU21D;53743;51.100;5.874;2023-11-21T05:23:53;10.35;98.98
66835;HTU21D;53743;51.100;5.874;2023-11-21T05:24:55;10.35;98.94
66835;HTU21D;53743;51.100;5.874;2023-11-21T05:25:56;10.35;99.02
66835;HTU21D;53743;51.100;5.874;2023-11-21T05:26:58;10.35;99.07
66835;HTU21D;53743;51.100;5.874;2023-11-21T05:28:00;10.38;99.19
66835;HTU21D;53743;51.100;5.874;2023-11-21T05:29:04;10.34;99.16
66835;HTU21D;53743;51.100;5.874;2023-11-21T05:30:06;10.34;99.26
66835;HTU21D;53743;51.100;5.874;2023-11-21T05:31:12;10.33;99.41
66835;HTU21D;53743;51.100;5.874;2023-11-21T05:32:13;10.30;99.42
66835;HTU21D;53743;51.100;5.874;2023-11-21T05:33:15;10.33;99.42
66835;HTU21D;53743;51.100;5.874;2023-11-21T05:34:16;10.36;99.24
66835;HTU21D;53743;51.100;5.874;2023-11-21T05:35:19;10.37;99.19
66835;HTU21D;53743;51.100;5.874;2023-11-21T05:36:20;10.37;99.28
66835;HTU21D;53743;51.100;5.874;2023-11-21T05:37:22;10.39;99.05
66835;HTU21D;53743;51.100;5.874;2023-11-21T05:38:23;10.39;99.20
66835;HTU21D;53743;51.100;5.874;2023-11-21T05:39:26;10.40;98.98
66835;HTU21D;53743;51.100;5.874;2023-11-21T05:40:28;10.39;99.09
66835;HTU21D;53743;51.100;5.874;2023-11-21T05:41:30;10.39;98.98
66835;HTU21D;53743;51.100;5.874;2023-11-21T05:42:31;10.38;99.17
66835;HTU21D;53743;51.100;5.874;2023-11-21T05:43:33;10.35;99.38
66835;HTU21D;53743;51.100;5.874;2023-11-21T05:44:37;10.35;99.50
66835;HTU21D;53743;51.100;5.874;2023-11-21T05:45:43;10.36;99.06
66835;HTU21D;53743;51.100;5.874;2023-11-21T05:46:44;10.39;99.33
66835;HTU21D;53743;51.100;5.874;2023-11-21T05:47:46;10.40;99.29
66835;HTU21D;53743;51.100;5.874;2023-11-21T05:48:47;10.44;99.08
66835;HTU21D;53743;51.100;5.874;2023-11-21T05:49:49;10.45;98.91
66835;HTU21D;53743;51.100;5.874;2023-11-21T05:50:52;10.45;98.96
66835;HTU21D;53743;51.100;5.874;2023-11-21T05:51:54;10.46;98.84
66835;HTU21D;53743;51.100;5.874;2023-11-21T05:52:55;10.46;98.57
66835;HTU21D;53743;51.100;5.874;2023-11-21T05:53:56;10.49;98.45
66835;HTU21D;53743;51.100;5.874;2023-11-21T05:54:58;10.49;98.55
66835;HTU21D;53743;51.100;5.874;2023-11-21T05:55:59;10.49;98.45
66835;HTU21D;53743;51.100;5.874;2023-11-21T05:57:02;10.50;98.44
66835;HTU21D;53743;51.100;5.874;2023-11-21T05:58:03;10.50;98.43
66835;HTU21D;53743;51.100;5.874;2023-11-21T05:59:05;10.51;98.34
66835;HTU21D;53743;51.100;5.874;2023-11-21T06:00:10;10.51;98.35
66835;HTU21D;53743;51.100;5.874;2023-11-21T06:01:18;10.52;98.46
66835;HTU21D;53743;51.100;5.874;2023-11-21T06:02:19;10.50;98.33
66835;HTU21D;53743;51.100;5.874;2023-11-21T06:03:21;10.48;98.12
66835;HTU21D;53743;51.100;5.874;2023-11-21T06:04:23;10.45;98.39
66835;HTU21D;53743;51.100;5.874;2023-11-21T06:05:26;10.45;98.52
66835;HTU21D;53743;51.100;5.874;2023-11-21T06:06:27;10.45;98.51
66835;HTU21D;53743;51.100;5.874;2023-11-21T06:07:29;10.44;98.64
66835;HTU21D;53743;51.100;5.874;2023-11-21T06:08:30;10.45;98.64
66835;HTU21D;53743;51.100;5.874;2023-11-21T06:09:32;10.45;98.84
66835;HTU21D;53743;51.100;5.874;2023-11-21T06:10:35;10.46;98.91
66835;HTU21D;53743;51.100;5.874;2023-11-21T06:11:37;10.48;98.88
66835;HTU21D;53743;51.100;5.874;2023-11-21T06:12:38;10.50;99.02
66835;HTU21D;53743;51.100;5.874;2023-11-21T06:13:40;10.49;98.87
66835;HTU21D;53743;51.100;5.874;2023-11-21T06:14:42;10.50;98.91
66835;HTU21D;53743;51.100;5.874;2023-11-21T06:15:45;10.50;99.19
66835;HTU21D;53743;51.100;5.874;2023-11-21T06:16:47;10.52;98.99
66835;HTU21D;53743;51.100;5.874;2023-11-21T06:17:47;10.52;98.97
66835;HTU21D;53743;51.100;5.874;2023-11-21T06:18:53;10.53;99.08
66835;HTU21D;53743;51.100;5.874;2023-11-21T06:19:54;10.53;98.84
66835;HTU21D;53743;51.100;5.874;2023-11-21T06:20:56;10.51;98.74
66835;HTU21D;53743;51.100;5.874;2023-11-21T06:21:57;10.53;99.08
66835;HTU21D;53743;51.100;5.874;2023-11-21T06:22:59;10.55;98.84
66835;HTU21D;53743;51.100;5.874;2023-11-21T06:24:04;10.54;98.55
66835;HTU21D;53743;51.100;5.874;2023-11-21T06:25:08;10.52;98.68
66835;HTU21D;53743;51.100;5.874;2023-11-21T06:26:09;10.54;98.48
66835;HTU21D;53743;51.100;5.874;2023-11-21T06:27:12;10.53;98.28
66835;HTU21D;53743;51.100;5.874;2023-11-21T06:28:13;10.51;98.26